createdAt,value
2019-01-20T00:00:35.807Z,26.17
2019-01-20T00:03:07.800Z,26.00
2019-01-20T00:05:39.945Z,28.23
2019-01-20T00:08:12.030Z,27.33
2019-01-20T00:10:44.013Z,30.53
2019-01-20T00:13:16.011Z,27.43
2019-01-20T00:15:48.101Z,28.27
2019-01-20T00:18:20.096Z,27.67
2019-01-20T00:20:52.138Z,27.93
2019-01-20T00:23:24.132Z,30.20
2019-01-20T00:25:56.160Z,29.20
2019-01-20T00:28:28.178Z,29.37
2019-01-20T00:31:00.199Z,26.47
2019-01-20T00:33:32.195Z,29.57
2019-01-20T00:36:04.213Z,26.63
2019-01-20T00:38:36.181Z,26.73
2019-01-20T00:41:08.201Z,28.97
2019-01-20T00:43:40.204Z,26.70
2019-01-20T00:46:12.203Z,27.30
2019-01-20T00:48:44.210Z,27.50
2019-01-20T00:51:16.215Z,27.70
2019-01-20T00:53:48.187Z,30.47
2019-01-20T00:56:20.171Z,28.30
2019-01-20T00:58:52.195Z,28.70
2019-01-20T01:01:24.169Z,29.37
2019-01-20T01:03:56.193Z,28.80
2019-01-20T01:06:28.182Z,29.97
2019-01-20T01:09:00.198Z,28.23
2019-01-20T01:11:32.210Z,30.30
2019-01-20T01:14:04.195Z,28.27
2019-01-20T01:16:36.157Z,27.07
2019-01-20T01:19:08.158Z,27.50
2019-01-20T01:21:40.144Z,30.23
2019-01-20T01:24:12.111Z,28.27
2019-01-20T01:26:44.111Z,27.17
2019-01-20T01:29:16.129Z,30.20
2019-01-20T01:31:48.094Z,30.23
2019-01-20T01:34:20.062Z,29.33
2019-01-20T01:36:52.051Z,26.23
2019-01-20T01:39:24.039Z,29.73
2019-01-20T01:41:56.052Z,27.13
2019-01-20T01:44:28.052Z,28.60
2019-01-20T01:47:00.044Z,28.33
2019-01-20T01:49:32.047Z,30.20
2019-01-20T01:52:04.527Z,27.63
2019-01-20T01:54:36.549Z,29.37
2019-01-20T01:57:08.568Z,26.73
2019-01-20T01:59:40.585Z,28.17
2019-01-20T02:02:12.566Z,26.57
2019-01-20T02:04:44.627Z,28.87
2019-01-20T02:07:16.614Z,26.33
2019-01-20T02:09:48.602Z,29.00
2019-01-20T02:12:20.569Z,27.20
2019-01-20T02:14:52.821Z,28.50
2019-01-20T02:17:24.773Z,29.10
2019-01-20T02:19:56.770Z,28.97
2019-01-20T02:22:28.749Z,24.83
2019-01-20T02:25:00.720Z,27.13
2019-01-20T02:27:32.725Z,28.07
2019-01-20T02:30:08.046Z,28.20
2019-01-20T02:32:40.077Z,29.00
2019-01-20T02:35:12.097Z,27.53
2019-01-20T02:37:44.060Z,26.27
2019-01-20T02:40:16.154Z,25.67
2019-01-20T02:42:48.138Z,28.43
2019-01-20T02:45:20.110Z,28.10
2019-01-20T02:47:52.090Z,28.43
2019-01-20T02:50:24.064Z,28.73
2019-01-20T02:52:56.047Z,27.47
2019-01-20T02:55:28.034Z,30.27
2019-01-20T02:58:01.959Z,28.20
2019-01-20T03:00:33.899Z,27.93
2019-01-20T03:03:05.898Z,27.27
2019-01-20T03:05:37.877Z,27.53
2019-01-20T03:08:09.858Z,26.40
2019-01-20T03:10:41.891Z,29.17
2019-01-20T03:13:13.868Z,28.10
2019-01-20T03:15:45.819Z,29.50
2019-01-20T03:18:17.824Z,28.53
2019-01-20T03:20:49.797Z,27.50
2019-01-20T03:23:21.781Z,29.37
2019-01-20T03:25:53.753Z,24.33
2019-01-20T03:28:25.762Z,27.70
2019-01-20T03:30:57.728Z,26.47
2019-01-20T03:33:29.726Z,27.30
2019-01-20T03:36:01.700Z,26.63
2019-01-20T03:38:33.699Z,28.67
2019-01-20T03:41:05.680Z,27.37
2019-01-20T03:43:37.668Z,27.03
2019-01-20T03:46:09.632Z,28.07
2019-01-20T03:48:41.639Z,27.33
2019-01-20T03:51:13.636Z,27.53
2019-01-20T03:53:45.596Z,27.13
2019-01-20T03:56:17.591Z,26.13
2019-01-20T03:58:49.613Z,27.50
2019-01-20T04:01:21.581Z,26.70
2019-01-20T04:03:53.559Z,28.80
2019-01-20T04:06:25.509Z,25.20
2019-01-20T04:08:57.508Z,26.00
2019-01-20T04:11:29.468Z,27.33
2019-01-20T04:14:01.444Z,26.07
2019-01-20T04:16:33.393Z,28.07
2019-01-20T04:19:05.375Z,24.67
2019-01-20T04:21:37.344Z,25.23
2019-01-20T04:24:09.367Z,24.30
2019-01-20T04:26:41.318Z,26.93
2019-01-20T04:29:13.353Z,28.23
2019-01-20T04:31:45.333Z,27.03
2019-01-20T04:34:17.325Z,25.33
2019-01-20T04:36:49.315Z,27.90
2019-01-20T04:39:21.300Z,26.63
2019-01-20T04:41:53.292Z,27.13
2019-01-20T04:44:25.259Z,27.83
2019-01-20T04:46:57.244Z,26.80
2019-01-20T04:49:29.229Z,26.40
2019-01-20T04:52:01.208Z,25.70
2019-01-20T04:54:33.174Z,27.30
2019-01-20T04:57:05.152Z,27.73
2019-01-20T04:59:37.101Z,28.53
2019-01-20T05:02:10.396Z,28.40
2019-01-20T05:04:42.362Z,28.30
2019-01-20T05:07:14.367Z,27.23
2019-01-20T05:09:46.414Z,27.17
2019-01-20T05:12:18.497Z,25.50
2019-01-20T05:14:50.477Z,26.93
2019-01-20T05:17:22.470Z,27.80
2019-01-20T05:19:54.419Z,28.07
2019-01-20T05:22:26.407Z,25.57
2019-01-20T05:24:58.382Z,23.23
2019-01-20T05:27:30.362Z,34.07
2019-01-20T05:30:02.902Z,30.77
2019-01-20T05:32:34.925Z,28.90
2019-01-20T05:35:07.617Z,29.07
2019-01-20T05:37:39.609Z,28.63
2019-01-20T05:40:12.771Z,28.23
2019-01-20T05:42:46.351Z,27.63
2019-01-20T05:45:20.683Z,29.13
2019-01-20T05:47:52.706Z,29.27
2019-01-20T05:50:24.732Z,23.67
2019-01-20T05:52:56.696Z,29.23
2019-01-20T05:55:28.675Z,25.03
2019-01-20T05:58:00.687Z,27.60
2019-01-20T06:00:33.148Z,24.50
2019-01-20T06:03:05.145Z,28.93
2019-01-20T06:05:37.115Z,27.60
2019-01-20T06:08:09.101Z,24.73
2019-01-20T06:10:41.119Z,24.47
2019-01-20T06:13:13.091Z,24.00
2019-01-20T06:15:45.087Z,27.47
2019-01-20T06:18:17.076Z,26.87
2019-01-20T06:20:49.041Z,26.97
2019-01-20T06:23:21.031Z,28.03
2019-01-20T06:25:52.979Z,28.93
2019-01-20T06:28:24.959Z,29.17
2019-01-20T06:30:56.973Z,27.70
2019-01-20T06:33:28.953Z,27.07
2019-01-20T06:36:00.933Z,26.70
2019-01-20T06:38:32.914Z,28.47
2019-01-20T06:41:04.937Z,28.77
2019-01-20T06:43:36.944Z,28.80
2019-01-20T06:46:08.915Z,29.27
2019-01-20T06:48:40.915Z,27.30
2019-01-20T06:51:12.901Z,27.33
2019-01-20T06:53:44.910Z,30.23
2019-01-20T06:56:16.878Z,29.00
2019-01-20T06:58:48.875Z,28.90
2019-01-20T07:01:20.853Z,26.13
2019-01-20T07:03:53.343Z,27.97
2019-01-20T07:06:25.343Z,26.33
2019-01-20T07:08:57.311Z,28.47
2019-01-20T07:11:29.314Z,27.20
2019-01-20T07:14:01.297Z,27.03
2019-01-20T07:16:33.312Z,28.73
2019-01-20T07:19:05.260Z,28.20
2019-01-20T07:21:37.232Z,27.20
2019-01-20T07:24:09.202Z,29.63
2019-01-20T07:26:41.163Z,30.67
2019-01-20T07:29:13.132Z,29.23
2019-01-20T07:31:45.375Z,31.53
2019-01-20T07:34:17.405Z,32.67
2019-01-20T07:36:49.402Z,29.90
2019-01-20T07:39:21.384Z,29.83
2019-01-20T07:41:53.386Z,27.87
2019-01-20T07:44:25.405Z,29.10
2019-01-20T07:46:57.387Z,30.80
2019-01-20T07:49:29.391Z,28.13
2019-01-20T07:52:01.420Z,27.20
2019-01-20T07:54:33.403Z,29.93
2019-01-20T07:57:06.032Z,29.67
2019-01-20T07:59:37.997Z,29.20
2019-01-20T08:02:10.018Z,29.77
2019-01-20T08:04:42.065Z,29.53
2019-01-20T08:07:14.145Z,28.30
2019-01-20T08:09:46.176Z,26.50
2019-01-20T08:12:23.481Z,28.87
2019-01-20T08:14:52.072Z,27.27
2019-01-20T08:17:24.084Z,32.10
2019-01-20T08:19:56.091Z,30.47
2019-01-20T08:22:28.104Z,31.47
2019-01-20T08:25:01.251Z,29.30
2019-01-20T08:27:33.255Z,29.77
2019-01-20T08:30:08.544Z,29.77
2019-01-20T08:32:40.596Z,29.23
2019-01-20T08:35:13.021Z,28.33
2019-01-20T08:37:45.133Z,30.87
2019-01-20T08:40:42.492Z,29.57
2019-01-20T08:43:14.478Z,30.60
2019-01-20T08:46:24.287Z,31.13
2019-01-20T08:48:56.353Z,32.63
2019-01-20T08:51:29.168Z,33.00
2019-01-20T08:54:02.992Z,30.93
2019-01-20T08:56:34.978Z,31.63
2019-01-20T08:59:06.977Z,31.50
2019-01-20T09:01:39.041Z,31.60
2019-01-20T09:04:11.043Z,31.93
2019-01-20T09:06:43.079Z,32.00
2019-01-20T09:09:15.086Z,30.57
2019-01-20T09:11:48.771Z,27.63
2019-01-20T09:14:20.746Z,31.40
2019-01-20T09:16:52.770Z,28.53
2019-01-20T09:19:24.822Z,32.33
2019-01-20T09:21:56.827Z,31.07
2019-01-20T09:24:28.903Z,32.77
2019-01-20T09:27:00.931Z,31.97
2019-01-20T09:29:32.948Z,32.33
2019-01-20T09:32:04.999Z,32.37
2019-01-20T09:34:37.059Z,31.07
2019-01-20T09:37:09.113Z,30.83
2019-01-20T09:39:41.152Z,31.10
2019-01-20T09:42:13.189Z,31.50
2019-01-20T09:44:45.189Z,34.27
2019-01-20T09:47:17.177Z,34.37
2019-01-20T09:49:49.241Z,32.63
2019-01-20T09:52:21.267Z,32.63
2019-01-20T09:54:53.362Z,31.37
2019-01-20T09:57:25.421Z,32.27
2019-01-20T09:59:57.533Z,30.40
2019-01-20T10:02:29.594Z,31.30
2019-01-20T10:05:01.577Z,32.23
2019-01-20T10:07:33.610Z,30.33
2019-01-20T10:10:07.176Z,30.73
2019-01-20T10:12:58.666Z,30.27
2019-01-20T10:15:30.659Z,34.43
2019-01-20T10:18:02.702Z,33.77
2019-01-20T10:20:34.695Z,32.53
2019-01-20T10:23:06.725Z,31.90
2019-01-20T10:25:38.792Z,31.33
2019-01-20T10:28:13.395Z,34.10
2019-01-20T10:30:45.454Z,32.80
2019-01-20T10:33:17.501Z,31.57
2019-01-20T10:35:53.867Z,31.90
2019-01-20T10:38:25.940Z,33.67
2019-01-20T10:40:57.973Z,32.67
2019-01-20T10:43:30.072Z,34.83
2019-01-20T10:46:02.116Z,32.90
2019-01-20T10:48:34.140Z,34.33
2019-01-20T10:51:06.166Z,33.07
2019-01-20T10:53:38.353Z,32.30
2019-01-20T10:56:10.335Z,32.23
2019-01-20T10:58:42.415Z,32.03
2019-01-20T11:01:14.478Z,33.40
2019-01-20T11:03:46.557Z,34.67
2019-01-20T11:06:18.700Z,34.17
2019-01-20T11:08:51.082Z,34.30
2019-01-20T11:11:23.113Z,35.23
2019-01-20T11:13:55.180Z,34.37
2019-01-20T11:16:27.204Z,35.90
2019-01-20T11:18:59.250Z,33.57
2019-01-20T11:21:31.298Z,32.07
2019-01-20T11:24:03.414Z,34.70
2019-01-20T11:26:35.684Z,35.17
2019-01-20T11:29:07.667Z,35.00
2019-01-20T11:31:39.689Z,33.67
2019-01-20T11:34:11.688Z,34.23
2019-01-20T11:36:43.740Z,32.40
2019-01-20T11:39:15.744Z,32.10
2019-01-20T11:41:47.777Z,33.93
2019-01-20T11:44:19.784Z,32.63
2019-01-20T11:46:51.824Z,32.87
2019-01-20T11:49:23.886Z,32.87
2019-01-20T11:51:55.929Z,34.10
2019-01-20T11:54:27.970Z,31.07
2019-01-20T11:56:59.976Z,33.63
2019-01-20T11:59:31.973Z,35.57
2019-01-20T12:02:04.387Z,35.70
2019-01-20T12:04:37.725Z,33.73
2019-01-20T12:07:09.767Z,33.33
2019-01-20T12:09:41.785Z,31.40
2019-01-20T12:12:13.847Z,31.77
2019-01-20T12:14:45.822Z,33.27
2019-01-20T12:17:17.825Z,34.93
2019-01-20T12:19:49.850Z,37.03
2019-01-20T12:22:21.908Z,33.57
2019-01-20T12:24:53.980Z,33.17
2019-01-20T12:27:26.096Z,33.23
2019-01-20T12:29:58.160Z,35.17
2019-01-20T12:32:30.254Z,34.20
2019-01-20T12:35:02.300Z,32.50
2019-01-20T12:37:34.360Z,36.70
2019-01-20T12:40:10.505Z,34.20
2019-01-20T12:42:42.548Z,34.93
2019-01-20T12:45:14.552Z,33.50
2019-01-20T12:47:46.580Z,35.17
2019-01-20T12:50:18.616Z,34.37
2019-01-20T12:52:51.361Z,34.50
2019-01-20T12:55:23.437Z,31.47
2019-01-20T12:57:55.546Z,31.53
2019-01-20T13:00:27.780Z,32.93
2019-01-20T13:02:59.800Z,31.57
2019-01-20T13:05:31.818Z,31.97
2019-01-20T13:08:04.386Z,32.20
2019-01-20T13:10:36.482Z,31.73
2019-01-20T13:13:08.514Z,31.47
2019-01-20T13:15:40.825Z,31.60
2019-01-20T13:18:12.879Z,31.47
2019-01-20T13:20:44.982Z,29.93
2019-01-20T13:23:17.017Z,29.73
2019-01-20T13:25:49.112Z,29.53
2019-01-20T13:28:21.168Z,33.03
2019-01-20T13:30:53.228Z,31.97
2019-01-20T13:33:25.306Z,31.13
2019-01-20T13:35:57.413Z,32.07
2019-01-20T13:38:29.459Z,29.57
2019-01-20T13:41:05.541Z,31.13
2019-01-20T13:43:37.583Z,28.60
2019-01-20T13:46:10.925Z,30.60
2019-01-20T13:48:43.037Z,32.93
2019-01-20T13:51:15.125Z,30.33
2019-01-20T13:53:47.198Z,31.60
2019-01-20T13:56:20.650Z,31.37
2019-01-20T13:58:52.682Z,32.97
2019-01-20T14:01:24.770Z,29.90
2019-01-20T14:03:56.925Z,32.30
2019-01-20T14:06:29.107Z,30.57
2019-01-20T14:09:01.347Z,30.63
2019-01-20T14:11:35.264Z,31.23
2019-01-20T14:14:07.302Z,34.37
2019-01-20T14:16:41.792Z,34.57
2019-01-20T14:19:13.907Z,32.97
2019-01-20T14:21:45.962Z,33.67
2019-01-20T14:24:17.980Z,31.27
2019-01-20T14:26:50.053Z,34.73
2019-01-20T14:29:22.083Z,39.63
2019-01-20T14:31:54.139Z,38.63
2019-01-20T14:34:26.204Z,32.87
2019-01-20T14:36:58.207Z,33.67
2019-01-20T14:39:30.222Z,31.83
2019-01-20T14:42:02.268Z,31.63
2019-01-20T14:44:34.258Z,35.47
2019-01-20T14:47:06.334Z,32.70
2019-01-20T14:49:38.372Z,32.93
2019-01-20T14:52:10.452Z,35.27
2019-01-20T14:54:42.483Z,32.97
2019-01-20T14:57:14.571Z,34.10
2019-01-20T14:59:46.611Z,32.53
2019-01-20T15:02:18.709Z,33.23
2019-01-20T15:04:50.786Z,33.07
2019-01-20T15:07:22.882Z,32.03
2019-01-20T15:09:54.981Z,33.07
2019-01-20T15:12:27.086Z,31.60
2019-01-20T15:14:59.158Z,30.67
2019-01-20T15:17:31.276Z,35.03
2019-01-20T15:20:04.966Z,32.53
2019-01-20T15:22:37.005Z,31.43
2019-01-20T15:25:10.111Z,33.43
2019-01-20T15:27:42.223Z,32.23
2019-01-20T15:30:17.832Z,32.17
2019-01-20T15:32:49.991Z,33.23
2019-01-20T15:35:22.287Z,34.10
2019-01-20T15:37:54.350Z,33.57
2019-01-20T15:40:26.387Z,32.87
2019-01-20T15:42:59.809Z,32.97
2019-01-20T15:45:31.891Z,36.57
2019-01-20T15:48:04.272Z,34.80
2019-01-20T15:50:36.305Z,34.90
2019-01-20T15:53:09.726Z,30.93
2019-01-20T15:55:41.806Z,35.27
2019-01-20T15:58:13.866Z,36.30
2019-01-20T16:00:45.930Z,35.17
2019-01-20T16:03:18.036Z,34.47
2019-01-20T16:05:50.096Z,35.57
2019-01-20T16:08:22.256Z,36.57
2019-01-20T16:10:54.368Z,35.40
2019-01-20T16:13:26.530Z,35.30
2019-01-20T16:15:58.573Z,40.67
2019-01-20T16:18:30.660Z,40.03
2019-01-20T16:21:03.271Z,40.53
2019-01-20T16:23:35.339Z,37.27
2019-01-20T16:26:07.405Z,36.07
2019-01-20T16:28:39.445Z,36.13
2019-01-20T16:31:11.520Z,40.03
2019-01-20T16:33:43.581Z,37.67
2019-01-20T16:36:15.665Z,34.50
2019-01-20T16:38:47.758Z,33.97
2019-01-20T16:41:20.309Z,36.70
2019-01-20T16:43:52.336Z,37.47
2019-01-20T16:46:24.511Z,37.40
2019-01-20T16:48:56.541Z,36.23
2019-01-20T16:51:28.668Z,34.10
2019-01-20T16:54:00.724Z,38.03
2019-01-20T16:56:32.850Z,37.30
2019-01-20T16:59:04.881Z,35.80
2019-01-20T17:01:37.141Z,33.80
2019-01-20T17:04:09.285Z,39.40
2019-01-20T17:06:41.312Z,38.33
2019-01-20T17:09:14.885Z,35.47
2019-01-20T17:11:47.266Z,33.00
2019-01-20T17:14:19.412Z,38.90
2019-01-20T17:16:51.556Z,38.30
2019-01-20T17:19:24.193Z,37.30
2019-01-20T17:21:56.218Z,37.97
2019-01-20T17:24:28.391Z,38.47
2019-01-20T17:27:00.437Z,35.90
2019-01-20T17:29:32.563Z,41.60
2019-01-20T17:32:04.765Z,39.80
2019-01-20T17:34:36.857Z,36.33
2019-01-20T17:37:08.914Z,39.17
2019-01-20T17:39:41.143Z,37.93
2019-01-20T17:42:13.274Z,39.73
2019-01-20T17:44:45.486Z,40.47
2019-01-20T17:47:17.537Z,42.83
2019-01-20T17:49:49.650Z,41.07
2019-01-20T17:52:21.821Z,41.13
2019-01-20T17:54:53.953Z,41.63
2019-01-20T17:57:26.051Z,40.03
2019-01-20T17:59:58.164Z,39.30
2019-01-20T18:02:30.309Z,38.73
2019-01-20T18:05:03.135Z,38.97
2019-01-20T18:07:35.191Z,39.60
2019-01-20T18:10:08.789Z,36.23
2019-01-20T18:12:40.911Z,37.77
2019-01-20T18:15:14.448Z,37.30
2019-01-20T18:17:46.492Z,39.93
2019-01-20T18:20:20.666Z,42.60
2019-01-20T18:22:52.745Z,39.23
2019-01-20T18:25:25.558Z,38.93
2019-01-20T18:27:57.568Z,38.63
2019-01-20T18:30:30.099Z,40.03
2019-01-20T18:33:02.168Z,39.33
2019-01-20T18:35:34.314Z,38.97
2019-01-20T18:38:06.376Z,40.70
2019-01-20T18:40:38.518Z,37.30
2019-01-20T18:43:10.558Z,40.33
2019-01-20T18:45:43.068Z,39.53
2019-01-20T18:48:15.173Z,39.53
2019-01-20T18:50:47.414Z,37.73
2019-01-20T18:53:19.519Z,41.23
2019-01-20T18:55:51.622Z,41.67
2019-01-20T18:58:23.771Z,37.83
2019-01-20T19:00:55.995Z,37.60
2019-01-20T19:03:28.148Z,39.63
2019-01-20T19:06:00.202Z,38.67
2019-01-20T19:08:32.335Z,40.03
2019-01-20T19:11:04.401Z,40.33
2019-01-20T19:13:36.589Z,41.00
2019-01-20T19:16:09.211Z,42.73
2019-01-20T19:18:41.511Z,40.77
2019-01-20T19:21:13.539Z,40.83
2019-01-20T19:23:45.758Z,40.30
2019-01-20T19:26:17.808Z,40.63
2019-01-20T19:28:50.001Z,40.97
2019-01-20T19:31:22.056Z,41.23
2019-01-20T19:33:54.188Z,40.83
2019-01-20T19:36:26.256Z,42.23
2019-01-20T19:38:58.360Z,41.77
2019-01-20T19:41:30.391Z,39.70
2019-01-20T19:44:02.601Z,41.77
2019-01-20T19:46:34.680Z,42.90
2019-01-20T19:49:06.882Z,41.97
2019-01-20T19:51:38.876Z,41.47
2019-01-20T19:54:11.130Z,42.47
2019-01-20T19:56:43.181Z,40.10
2019-01-20T19:59:15.364Z,39.23
2019-01-20T20:01:47.511Z,37.83
2019-01-20T20:04:19.681Z,39.50
2019-01-20T20:06:51.727Z,39.17
2019-01-20T20:09:23.880Z,40.17
2019-01-20T20:11:55.992Z,42.27
2019-01-20T20:14:28.176Z,41.27
2019-01-20T20:17:00.304Z,38.43
2019-01-20T20:19:32.432Z,37.40
2019-01-20T20:22:04.478Z,38.63
2019-01-20T20:24:36.602Z,41.17
2019-01-20T20:27:08.706Z,42.93
2019-01-20T20:29:40.776Z,42.27
2019-01-20T20:32:12.852Z,40.50
2019-01-20T20:34:44.985Z,39.10
2019-01-20T20:37:17.085Z,38.77
2019-01-20T20:39:49.251Z,42.27
2019-01-20T20:42:21.314Z,42.27
2019-01-20T20:44:53.555Z,39.87
2019-01-20T20:47:25.773Z,41.70
2019-01-20T20:49:57.948Z,38.90
2019-01-20T20:52:30.104Z,41.80
2019-01-20T20:55:02.234Z,39.40
2019-01-20T20:57:34.394Z,39.00
2019-01-20T21:00:10.582Z,38.80
2019-01-20T21:02:42.887Z,38.83
2019-01-20T21:05:15.057Z,42.03
2019-01-20T21:07:47.214Z,41.67
2019-01-20T21:10:19.284Z,39.53
2019-01-20T21:12:51.407Z,38.53
2019-01-20T21:15:23.441Z,42.07
2019-01-20T21:17:55.640Z,36.20
2019-01-20T21:20:27.704Z,42.13
2019-01-20T21:22:59.870Z,41.67
2019-01-20T21:25:31.893Z,38.63
2019-01-20T21:28:03.985Z,38.57
2019-01-20T21:30:36.033Z,39.67
2019-01-20T21:33:08.190Z,41.47
2019-01-20T21:35:40.267Z,41.63
2019-01-20T21:38:12.337Z,39.70
2019-01-20T21:40:44.417Z,39.17
2019-01-20T21:43:16.443Z,40.30
2019-01-20T21:45:48.522Z,38.73
2019-01-20T21:48:20.551Z,38.87
2019-01-20T21:50:52.587Z,42.07
2019-01-20T21:53:24.648Z,39.97
2019-01-20T21:55:56.727Z,40.60
2019-01-20T21:58:28.770Z,37.07
2019-01-20T22:01:00.806Z,38.90
2019-01-20T22:03:32.850Z,41.47
2019-01-20T22:06:04.897Z,39.17
2019-01-20T22:08:36.943Z,40.60
2019-01-20T22:11:08.938Z,38.17
2019-01-20T22:13:41.006Z,39.90
2019-01-20T22:16:13.006Z,41.73
2019-01-20T22:18:45.075Z,38.77
2019-01-20T22:21:17.067Z,42.80
2019-01-20T22:23:49.120Z,39.87
2019-01-20T22:26:21.159Z,39.97
2019-01-20T22:28:53.205Z,43.07
2019-01-20T22:31:25.246Z,40.63
2019-01-20T22:33:57.297Z,40.40
2019-01-20T22:36:29.289Z,42.37
2019-01-20T22:39:01.347Z,40.83
2019-01-20T22:41:33.379Z,41.37
2019-01-20T22:44:05.390Z,40.90
2019-01-20T22:46:37.441Z,42.00
2019-01-20T22:49:09.434Z,40.53
2019-01-20T22:51:41.466Z,38.63
2019-01-20T22:54:13.506Z,40.97
2019-01-20T22:56:45.518Z,39.07
2019-01-20T22:59:17.544Z,40.27
2019-01-20T23:01:49.634Z,41.00
2019-01-20T23:04:21.690Z,38.87
2019-01-20T23:06:53.696Z,41.30
2019-01-20T23:09:25.676Z,42.50
2019-01-20T23:12:17.145Z,40.93
2019-01-20T23:14:49.111Z,39.43
2019-01-20T23:17:21.159Z,38.27
2019-01-20T23:19:53.175Z,39.80
2019-01-20T23:22:25.192Z,38.73
2019-01-20T23:24:57.212Z,37.57
2019-01-20T23:27:29.189Z,37.80
2019-01-20T23:30:01.181Z,38.63
2019-01-20T23:32:33.232Z,38.03
2019-01-20T23:35:05.313Z,33.63
2019-01-20T23:37:37.371Z,36.17
2019-01-20T23:40:09.442Z,35.83
2019-01-20T23:42:41.451Z,35.83
2019-01-20T23:45:13.827Z,35.53
2019-01-20T23:47:45.921Z,33.43
2019-01-20T23:50:17.933Z,35.30
2019-01-20T23:52:50.075Z,34.33
2019-01-20T23:55:22.640Z,31.93
2019-01-20T23:57:54.645Z,34.03
